sensor_id;sensor_type;location;lat;lon;timestamp;pressure;altitude;pressure_sealevel;temperature;humidity
61805;BME280;47725;47.912;7.356;2023-12-20T00:02:38;99508.50;;;9.44;58.60
61805;BME280;47725;47.912;7.356;2023-12-20T00:06:38;99506.96;;;9.45;58.37
61805;BME280;47725;47.912;7.356;2023-12-20T00:10:38;99507.70;;;9.48;58.24
61805;BME280;47725;47.912;7.356;2023-12-20T00:14:38;99508.53;;;9.52;57.95
61805;BME280;47725;47.912;7.356;2023-12-20T00:18:38;99510.08;;;9.56;57.72
61805;BME280;47725;47.912;7.356;2023-12-20T00:22:38;99510.13;;;9.63;57.72
61805;BME280;47725;47.912;7.356;2023-12-20T00:26:38;99507.05;;;9.68;57.39
61805;BME280;47725;47.912;7.356;2023-12-20T00:30:38;99499.00;;;9.74;57.30
61805;BME280;47725;47.912;7.356;2023-12-20T00:34:38;99488.36;;;9.77;57.35
61805;BME280;47725;47.912;7.356;2023-12-20T00:38:38;99478.62;;;9.82;57.09
61805;BME280;47725;47.912;7.356;2023-12-20T00:42:38;99471.44;;;9.88;57.06
61805;BME280;47725;47.912;7.356;2023-12-20T00:46:38;99465.96;;;9.92;57.33
61805;BME280;47725;47.912;7.356;2023-12-20T00:50:38;99464.54;;;9.95;57.29
61805;BME280;47725;47.912;7.356;2023-12-20T00:54:38;99463.37;;;9.98;57.32
61805;BME280;47725;47.912;7.356;2023-12-20T00:58:38;99461.92;;;10.03;57.08
61805;BME280;47725;47.912;7.356;2023-12-20T01:02:38;99460.08;;;10.07;57.09
61805;BME280;47725;47.912;7.356;2023-12-20T01:06:38;99461.00;;;10.12;56.96
61805;BME280;47725;47.912;7.356;2023-12-20T01:10:38;99461.83;;;10.18;56.83
61805;BME280;47725;47.912;7.356;2023-12-20T01:14:38;99463.98;;;10.25;56.62
61805;BME280;47725;47.912;7.356;2023-12-20T01:18:38;99467.27;;;10.33;56.42
61805;BME280;47725;47.912;7.356;2023-12-20T01:22:38;99469.02;;;10.40;56.43
61805;BME280;47725;47.912;7.356;2023-12-20T01:26:38;99471.25;;;10.48;56.24
61805;BME280;47725;47.912;7.356;2023-12-20T01:30:38;99473.58;;;10.55;55.86
61805;BME280;47725;47.912;7.356;2023-12-20T01:34:38;99474.99;;;10.60;55.98
61805;BME280;47725;47.912;7.356;2023-12-20T01:38:38;99474.57;;;10.64;56.02
61805;BME280;47725;47.912;7.356;2023-12-20T01:42:38;99473.05;;;10.70;55.71
61805;BME280;47725;47.912;7.356;2023-12-20T01:46:38;99471.31;;;10.76;55.72
61805;BME280;47725;47.912;7.356;2023-12-20T01:50:37;99472.33;;;10.81;55.85
61805;BME280;47725;47.912;7.356;2023-12-20T01:54:38;99474.47;;;10.86;56.03
61805;BME280;47725;47.912;7.356;2023-12-20T01:58:39;99476.44;;;10.88;56.18
61805;BME280;47725;47.912;7.356;2023-12-20T02:02:39;99477.48;;;10.89;56.55
61805;BME280;47725;47.912;7.356;2023-12-20T02:06:38;99477.25;;;10.89;56.67
61805;BME280;47725;47.912;7.356;2023-12-20T02:10:38;99477.39;;;10.90;56.49
61805;BME280;47725;47.912;7.356;2023-12-20T02:14:38;99477.52;;;10.91;56.57
61805;BME280;47725;47.912;7.356;2023-12-20T02:18:38;99478.38;;;10.93;56.43
61805;BME280;47725;47.912;7.356;2023-12-20T02:22:37;99476.40;;;10.94;56.28
61805;BME280;47725;47.912;7.356;2023-12-20T02:26:37;99474.16;;;10.99;55.92
61805;BME280;47725;47.912;7.356;2023-12-20T02:30:37;99472.89;;;11.04;55.75
61805;BME280;47725;47.912;7.356;2023-12-20T02:34:38;99471.94;;;11.08;55.71
61805;BME280;47725;47.912;7.356;2023-12-20T02:38:37;99470.65;;;11.11;55.82
61805;BME280;47725;47.912;7.356;2023-12-20T02:42:37;99469.95;;;11.13;55.73
61805;BME280;47725;47.912;7.356;2023-12-20T02:46:37;99469.81;;;11.12;56.14
61805;BME280;47725;47.912;7.356;2023-12-20T02:50:37;99469.84;;;11.11;56.27
61805;BME280;47725;47.912;7.356;2023-12-20T02:54:37;99470.19;;;11.08;56.30
61805;BME280;47725;47.912;7.356;2023-12-20T02:58:37;99472.16;;;11.07;56.02
61805;BME280;47725;47.912;7.356;2023-12-20T03:02:37;99473.56;;;11.08;56.06
61805;BME280;47725;47.912;7.356;2023-12-20T03:06:38;99475.02;;;11.08;55.97
61805;BME280;47725;47.912;7.356;2023-12-20T03:10:37;99479.58;;;11.08;55.89
61805;BME280;47725;47.912;7.356;2023-12-20T03:14:37;99482.31;;;11.08;55.82
61805;BME280;47725;47.912;7.356;2023-12-20T03:18:37;99483.95;;;11.09;55.79
61805;BME280;47725;47.912;7.356;2023-12-20T03:22:37;99483.95;;;11.11;55.46
61805;BME280;47725;47.912;7.356;2023-12-20T03:26:37;99483.38;;;11.13;55.38
61805;BME280;47725;47.912;7.356;2023-12-20T03:30:37;99486.47;;;11.13;55.43
61805;BME280;47725;47.912;7.356;2023-12-20T03:34:37;99489.50;;;11.13;55.33
61805;BME280;47725;47.912;7.356;2023-12-20T03:38:37;99491.39;;;11.15;55.24
61805;BME280;47725;47.912;7.356;2023-12-20T03:42:37;99493.66;;;11.18;55.13
61805;BME280;47725;47.912;7.356;2023-12-20T03:46:37;99495.78;;;11.19;55.04
61805;BME280;47725;47.912;7.356;2023-12-20T03:50:37;99497.44;;;11.19;55.02
61805;BME280;47725;47.912;7.356;2023-12-20T03:54:37;99498.85;;;11.20;54.99
61805;BME280;47725;47.912;7.356;2023-12-20T03:58:37;99501.64;;;11.21;54.96
61805;BME280;47725;47.912;7.356;2023-12-20T04:02:38;99501.48;;;11.21;55.01
61805;BME280;47725;47.912;7.356;2023-12-20T04:06:37;99502.29;;;11.21;54.97
61805;BME280;47725;47.912;7.356;2023-12-20T04:10:37;99501.62;;;11.18;55.27
61805;BME280;47725;47.912;7.356;2023-12-20T04:14:37;99503.78;;;11.15;55.26
61805;BME280;47725;47.912;7.356;2023-12-20T04:18:37;99506.11;;;11.12;55.31
61805;BME280;47725;47.912;7.356;2023-12-20T04:22:37;99511.17;;;11.10;55.23
61805;BME280;47725;47.912;7.356;2023-12-20T04:26:37;99517.28;;;11.09;55.29
61805;BME280;47725;47.912;7.356;2023-12-20T04:30:37;99525.64;;;11.10;55.21
61805;BME280;47725;47.912;7.356;2023-12-20T04:34:37;99531.28;;;11.11;55.03
61805;BME280;47725;47.912;7.356;2023-12-20T04:38:37;99536.16;;;11.12;55.07
61805;BME280;47725;47.912;7.356;2023-12-20T04:42:37;99539.72;;;11.14;55.04
61805;BME280;47725;47.912;7.356;2023-12-20T04:46:37;99543.77;;;11.16;54.80
61805;BME280;47725;47.912;7.356;2023-12-20T04:50:37;99548.38;;;11.18;54.75
61805;BME280;47725;47.912;7.356;2023-12-20T04:54:37;99550.01;;;11.21;54.69
61805;BME280;47725;47.912;7.356;2023-12-20T04:58:37;99551.87;;;11.22;54.54
61805;BME280;47725;47.912;7.356;2023-12-20T05:02:37;99554.36;;;11.24;54.53
61805;BME280;47725;47.912;7.356;2023-12-20T05:06:37;99556.33;;;11.26;54.25
61805;BME280;47725;47.912;7.356;2023-12-20T05:10:37;99559.50;;;11.28;54.21
61805;BME280;47725;47.912;7.356;2023-12-20T05:14:37;99563.25;;;11.30;54.20
61805;BME280;47725;47.912;7.356;2023-12-20T05:18:37;99565.67;;;11.32;54.27
61805;BME280;47725;47.912;7.356;2023-12-20T05:22:37;99568.73;;;11.33;54.20
61805;BME280;47725;47.912;7.356;2023-12-20T05:26:37;99571.34;;;11.34;54.20
61805;BME280;47725;47.912;7.356;2023-12-20T05:30:37;99573.46;;;11.33;53.97
61805;BME280;47725;47.912;7.356;2023-12-20T05:34:37;99576.21;;;11.32;54.09
61805;BME280;47725;47.912;7.356;2023-12-20T05:38:37;99580.11;;;11.31;53.89
61805;BME280;47725;47.912;7.356;2023-12-20T05:42:37;99586.45;;;11.32;54.03
61805;BME280;47725;47.912;7.356;2023-12-20T05:46:37;99591.89;;;11.33;53.87
61805;BME280;47725;47.912;7.356;2023-12-20T05:50:37;99595.00;;;11.34;53.89
61805;BME280;47725;47.912;7.356;2023-12-20T05:54:37;99596.66;;;11.35;53.69
61805;BME280;47725;47.912;7.356;2023-12-20T05:58:38;99597.69;;;11.39;53.55
61805;BME280;47725;47.912;7.356;2023-12-20T06:02:37;99600.97;;;11.41;53.60
61805;BME280;47725;47.912;7.356;2023-12-20T06:06:40;99604.19;;;11.43;53.51
61805;BME280;47725;47.912;7.356;2023-12-20T06:10:37;99607.62;;;11.44;53.60
61805;BME280;47725;47.912;7.356;2023-12-20T06:14:37;99611.99;;;11.46;53.49
61805;BME280;47725;47.912;7.356;2023-12-20T06:18:37;99615.41;;;11.47;53.54
61805;BME280;47725;47.912;7.356;2023-12-20T06:22:37;99618.16;;;11.47;53.58
61805;BME280;47725;47.912;7.356;2023-12-20T06:26:37;99619.50;;;11.49;53.37
61805;BME280;47725;47.912;7.356;2023-12-20T06:30:37;99620.58;;;11.50;53.40
61805;BME280;47725;47.912;7.356;2023-12-20T06:34:37;99622.34;;;11.50;53.42
61805;BME280;47725;47.912;7.356;2023-12-20T06:38:37;99623.71;;;11.50;53.44
61805;BME280;47725;47.912;7.356;2023-12-20T06:42:37;99626.23;;;11.49;53.44
61805;BME280;47725;47.912;7.356;2023-12-20T06:46:37;99628.80;;;11.48;53.48
61805;BME280;47725;47.912;7.356;2023-12-20T06:50:37;99632.65;;;11.46;53.41
61805;BME280;47725;47.912;7.356;2023-12-20T06:54:37;99639.37;;;11.43;53.39
61805;BME280;47725;47.912;7.356;2023-12-20T06:58:37;99646.70;;;11.40;53.43
61805;BME280;47725;47.912;7.356;2023-12-20T07:02:37;99654.74;;;11.34;53.30
61805;BME280;47725;47.912;7.356;2023-12-20T07:06:37;99660.80;;;11.27;53.72
61805;BME280;47725;47.912;7.356;2023-12-20T07:10:37;99665.81;;;11.21;53.69
61805;BME280;47725;47.912;7.356;2023-12-20T07:14:37;99670.98;;;11.16;53.66
61805;BME280;47725;47.912;7.356;2023-12-20T07:18:37;99674.52;;;11.11;53.66
61805;BME280;47725;47.912;7.356;2023-12-20T07:22:37;99680.03;;;11.06;53.56
61805;BME280;47725;47.912;7.356;2023-12-20T07:26:37;99687.09;;;11.00;53.73
61805;BME280;47725;47.912;7.356;2023-12-20T07:30:37;99693.59;;;10.96;53.62
61805;BME280;47725;47.912;7.356;2023-12-20T07:34:37;99698.85;;;10.91;53.43
61805;BME280;47725;47.912;7.356;2023-12-20T07:38:37;99702.81;;;10.85;53.47
61805;BME280;47725;47.912;7.356;2023-12-20T07:42:37;99707.15;;;10.78;53.53
61805;BME280;47725;47.912;7.356;2023-12-20T07:46:37;99712.25;;;10.70;53.58
61805;BME280;47725;47.912;7.356;2023-12-20T07:50:37;99716.60;;;10.61;53.40
61805;BME280;47725;47.912;7.356;2023-12-20T07:54:38;99721.79;;;10.50;54.00
61805;BME280;47725;47.912;7.356;2023-12-20T07:58:37;99724.03;;;10.40;54.15
61805;BME280;47725;47.912;7.356;2023-12-20T08:02:37;99726.00;;;10.31;54.07
61805;BME280;47725;47.912;7.356;2023-12-20T08:06:37;99729.46;;;10.22;54.17
61805;BME280;47725;47.912;7.356;2023-12-20T08:10:37;99734.11;;;10.16;54.24
61805;BME280;47725;47.912;7.356;2023-12-20T08:14:37;99739.64;;;10.12;54.28
61805;BME280;47725;47.912;7.356;2023-12-20T08:18:37;99744.37;;;10.09;54.33
61805;BME280;47725;47.912;7.356;2023-12-20T08:22:37;99749.64;;;10.08;54.20
61805;BME280;47725;47.912;7.356;2023-12-20T08:26:37;99753.11;;;10.09;54.18
61805;BME280;47725;47.912;7.356;2023-12-20T08:30:37;99756.67;;;10.10;54.21
61805;BME280;47725;47.912;7.356;2023-12-20T08:34:37;99759.42;;;10.10;54.31
61805;BME280;47725;47.912;7.356;2023-12-20T08:38:37;99764.84;;;10.11;54.21
61805;BME280;47725;47.912;7.356;2023-12-20T08:42:37;99768.54;;;10.13;54.17
61805;BME280;47725;47.912;7.356;2023-12-20T08:46:37;99773.13;;;10.16;54.39
61805;BME280;47725;47.912;7.356;2023-12-20T08:50:37;99777.60;;;10.20;54.07
61805;BME280;47725;47.912;7.356;2023-12-20T08:54:37;99783.73;;;10.25;54.16
61805;BME280;47725;47.912;7.356;2023-12-20T08:58:37;99787.97;;;10.30;54.01
61805;BME280;47725;47.912;7.356;2023-12-20T09:02:37;99791.33;;;10.36;54.00
61805;BME280;47725;47.912;7.356;2023-12-20T09:06:37;99793.73;;;10.40;54.24
61805;BME280;47725;47.912;7.356;2023-12-20T09:10:37;99797.65;;;10.46;54.16
61805;BME280;47725;47.912;7.356;2023-12-20T09:14:37;99801.17;;;10.52;54.09
61805;BME280;47725;47.912;7.356;2023-12-20T09:18:37;99804.83;;;10.56;54.03
61805;BME280;47725;47.912;7.356;2023-12-20T09:22:37;99810.36;;;10.59;53.94
61805;BME280;47725;47.912;7.356;2023-12-20T09:26:37;99817.49;;;10.62;53.94
61805;BME280;47725;47.912;7.356;2023-12-20T09:30:37;99825.29;;;10.65;53.97
61805;BME280;47725;47.912;7.356;2023-12-20T09:34:37;99830.69;;;10.65;54.07
61805;BME280;47725;47.912;7.356;2023-12-20T09:38:37;99833.52;;;10.66;54.30
61805;BME280;47725;47.912;7.356;2023-12-20T09:42:47;99835.00;;;10.69;54.18
61805;BME280;47725;47.912;7.356;2023-12-20T09:46:37;99836.08;;;10.75;54.07
61805;BME280;47725;47.912;7.356;2023-12-20T09:50:37;99838.08;;;10.83;53.84
61805;BME280;47725;47.912;7.356;2023-12-20T09:54:37;99839.08;;;10.94;53.77
61805;BME280;47725;47.912;7.356;2023-12-20T09:58:37;99838.20;;;11.07;53.54
61805;BME280;47725;47.912;7.356;2023-12-20T10:02:38;99838.79;;;11.22;53.21
61805;BME280;47725;47.912;7.356;2023-12-20T10:06:40;99837.91;;;11.40;52.70
61805;BME280;47725;47.912;7.356;2023-12-20T10:10:37;99835.67;;;11.57;52.33
61805;BME280;47725;47.912;7.356;2023-12-20T10:14:38;99834.22;;;11.75;52.08
61805;BME280;47725;47.912;7.356;2023-12-20T10:18:37;99834.11;;;11.93;51.42
61805;BME280;47725;47.912;7.356;2023-12-20T10:22:37;99834.09;;;12.12;51.40
61805;BME280;47725;47.912;7.356;2023-12-20T10:26:37;99833.08;;;12.31;50.86
61805;BME280;47725;47.912;7.356;2023-12-20T10:30:37;99830.10;;;12.48;49.96
61805;BME280;47725;47.912;7.356;2023-12-20T10:34:37;99826.59;;;12.63;50.14
61805;BME280;47725;47.912;7.356;2023-12-20T10:38:37;99822.19;;;12.77;49.17
61805;BME280;47725;47.912;7.356;2023-12-20T10:42:37;99817.97;;;12.88;48.91
61805;BME280;47725;47.912;7.356;2023-12-20T10:46:37;99812.50;;;13.00;48.16
61805;BME280;47725;47.912;7.356;2023-12-20T10:50:37;99806.86;;;13.11;46.82
61805;BME280;47725;47.912;7.356;2023-12-20T10:54:37;99802.28;;;13.19;46.38
61805;BME280;47725;47.912;7.356;2023-12-20T10:58:37;99801.29;;;13.28;45.98
61805;BME280;47725;47.912;7.356;2023-12-20T11:02:39;99799.48;;;13.38;45.14
61805;BME280;47725;47.912;7.356;2023-12-20T11:06:45;99796.22;;;13.46;42.68
61805;BME280;47725;47.912;7.356;2023-12-20T11:10:46;99792.61;;;13.52;42.81
61805;BME280;47725;47.912;7.356;2023-12-20T11:14:46;99789.54;;;13.59;42.97
61805;BME280;47725;47.912;7.356;2023-12-20T11:18:37;99788.05;;;13.63;43.27
61805;BME280;47725;47.912;7.356;2023-12-20T11:22:37;99787.13;;;13.67;42.84
61805;BME280;47725;47.912;7.356;2023-12-20T11:26:37;99786.19;;;13.71;41.71
61805;BME280;47725;47.912;7.356;2023-12-20T11:30:46;99783.64;;;13.73;41.91
61805;BME280;47725;47.912;7.356;2023-12-20T11:34:37;99779.63;;;13.75;41.54
61805;BME280;47725;47.912;7.356;2023-12-20T11:38:37;99775.11;;;13.77;41.41
61805;BME280;47725;47.912;7.356;2023-12-20T11:42:40;99772.99;;;13.80;41.75
61805;BME280;47725;47.912;7.356;2023-12-20T11:46:37;99772.10;;;13.88;40.84
61805;BME280;47725;47.912;7.356;2023-12-20T11:50:37;99768.73;;;13.96;40.36
61805;BME280;47725;47.912;7.356;2023-12-20T11:54:37;99765.03;;;14.03;40.47
61805;BME280;47725;47.912;7.356;2023-12-20T11:58:37;99762.27;;;14.09;40.53
61805;BME280;47725;47.912;7.356;2023-12-20T12:02:37;99760.44;;;14.16;39.40
61805;BME280;47725;47.912;7.356;2023-12-20T12:06:37;99760.16;;;14.20;40.26
61805;BME280;47725;47.912;7.356;2023-12-20T12:10:37;99759.92;;;14.24;39.97
61805;BME280;47725;47.912;7.356;2023-12-20T12:14:37;99759.39;;;14.25;39.82
61805;BME280;47725;47.912;7.356;2023-12-20T12:18:37;99759.56;;;14.27;39.06
61805;BME280;47725;47.912;7.356;2023-12-20T12:22:37;99759.38;;;14.32;39.28
61805;BME280;47725;47.912;7.356;2023-12-20T12:26:37;99758.58;;;14.39;38.84
61805;BME280;47725;47.912;7.356;2023-12-20T12:30:37;99758.59;;;14.44;38.67
61805;BME280;47725;47.912;7.356;2023-12-20T12:34:37;99761.39;;;14.46;39.42
61805;BME280;47725;47.912;7.356;2023-12-20T12:38:37;99764.25;;;14.43;39.27
61805;BME280;47725;47.912;7.356;2023-12-20T12:42:37;99766.19;;;14.41;38.61
61805;BME280;47725;47.912;7.356;2023-12-20T12:46:37;99767.61;;;14.44;39.62
61805;BME280;47725;47.912;7.356;2023-12-20T12:50:37;99769.75;;;14.52;39.32
61805;BME280;47725;47.912;7.356;2023-12-20T12:54:37;99770.34;;;14.61;37.41
61805;BME280;47725;47.912;7.356;2023-12-20T12:58:37;99771.32;;;14.61;38.36
61805;BME280;47725;47.912;7.356;2023-12-20T13:02:37;99771.50;;;14.57;38.73
61805;BME280;47725;47.912;7.356;2023-12-20T13:06:37;99770.94;;;14.50;38.40
61805;BME280;47725;47.912;7.356;2023-12-20T13:10:37;99770.40;;;14.41;39.56
61805;BME280;47725;47.912;7.356;2023-12-20T13:14:37;99771.34;;;14.31;39.42
61805;BME280;47725;47.912;7.356;2023-12-20T13:18:37;99772.88;;;14.21;39.71
61805;BME280;47725;47.912;7.356;2023-12-20T13:22:37;99774.95;;;14.09;39.70
61805;BME280;47725;47.912;7.356;2023-12-20T13:26:37;99774.34;;;13.98;39.48
61805;BME280;47725;47.912;7.356;2023-12-20T13:30:37;99773.58;;;13.86;39.64
61805;BME280;47725;47.912;7.356;2023-12-20T13:34:37;99771.62;;;13.76;40.25
61805;BME280;47725;47.912;7.356;2023-12-20T13:38:37;99769.40;;;13.70;40.03
61805;BME280;47725;47.912;7.356;2023-12-20T13:42:37;99765.09;;;13.65;39.89
61805;BME280;47725;47.912;7.356;2023-12-20T13:46:37;99762.45;;;13.62;40.22
61805;BME280;47725;47.912;7.356;2023-12-20T13:50:37;99761.24;;;13.59;39.68
61805;BME280;47725;47.912;7.356;2023-12-20T13:54:37;99760.25;;;13.56;39.94
61805;BME280;47725;47.912;7.356;2023-12-20T13:58:37;99759.23;;;13.50;40.20
61805;BME280;47725;47.912;7.356;2023-12-20T14:02:37;99760.47;;;13.41;40.77
61805;BME280;47725;47.912;7.356;2023-12-20T14:06:37;99760.91;;;13.30;40.87
61805;BME280;47725;47.912;7.356;2023-12-20T14:10:37;99763.22;;;13.22;41.20
61805;BME280;47725;47.912;7.356;2023-12-20T14:14:37;99762.91;;;13.14;40.95
61805;BME280;47725;47.912;7.356;2023-12-20T14:18:37;99762.60;;;13.07;41.17
61805;BME280;47725;47.912;7.356;2023-12-20T14:22:37;99762.19;;;13.01;41.62
61805;BME280;47725;47.912;7.356;2023-12-20T14:26:37;99761.41;;;12.90;42.45
61805;BME280;47725;47.912;7.356;2023-12-20T14:30:37;99760.94;;;12.77;42.91
61805;BME280;47725;47.912;7.356;2023-12-20T14:34:37;99758.72;;;12.67;43.12
61805;BME280;47725;47.912;7.356;2023-12-20T14:38:37;99755.88;;;12.58;43.24
61805;BME280;47725;47.912;7.356;2023-12-20T14:42:37;99754.11;;;12.49;43.52
61805;BME280;47725;47.912;7.356;2023-12-20T14:46:37;99755.27;;;12.39;43.74
61805;BME280;47725;47.912;7.356;2023-12-20T14:50:37;99756.07;;;12.30;44.08
61805;BME280;47725;47.912;7.356;2023-12-20T14:54:37;99756.94;;;12.22;44.45
61805;BME280;47725;47.912;7.356;2023-12-20T14:58:37;99759.02;;;12.16;44.60
61805;BME280;47725;47.912;7.356;2023-12-20T15:02:37;99762.33;;;12.08;45.32
61805;BME280;47725;47.912;7.356;2023-12-20T15:06:37;99766.96;;;11.98;45.56
61805;BME280;47725;47.912;7.356;2023-12-20T15:10:37;99770.12;;;11.90;45.51
61805;BME280;47725;47.912;7.356;2023-12-20T15:14:37;99771.84;;;11.84;45.82
61805;BME280;47725;47.912;7.356;2023-12-20T15:18:37;99771.61;;;11.76;46.15
61805;BME280;47725;47.912;7.356;2023-12-20T15:22:37;99768.41;;;11.67;46.32
61805;BME280;47725;47.912;7.356;2023-12-20T15:26:37;99766.80;;;11.58;46.50
61805;BME280;47725;47.912;7.356;2023-12-20T15:30:37;99766.49;;;11.50;46.60
61805;BME280;47725;47.912;7.356;2023-12-20T15:34:37;99765.31;;;11.43;46.78
61805;BME280;47725;47.912;7.356;2023-12-20T15:38:37;99765.51;;;11.36;46.87
61805;BME280;47725;47.912;7.356;2023-12-20T15:42:37;99768.03;;;11.28;47.29
61805;BME280;47725;47.912;7.356;2023-12-20T15:46:37;99770.25;;;11.21;47.52
61805;BME280;47725;47.912;7.356;2023-12-20T15:50:37;99773.83;;;11.15;47.38
61805;BME280;47725;47.912;7.356;2023-12-20T15:54:37;99774.84;;;11.10;47.35
61805;BME280;47725;47.912;7.356;2023-12-20T15:58:37;99775.52;;;11.03;47.83
61805;BME280;47725;47.912;7.356;2023-12-20T16:02:37;99772.64;;;10.95;48.23
61805;BME280;47725;47.912;7.356;2023-12-20T16:06:37;99768.97;;;10.87;48.29
61805;BME280;47725;47.912;7.356;2023-12-20T16:10:37;99765.18;;;10.80;48.34
61805;BME280;47725;47.912;7.356;2023-12-20T16:14:37;99762.42;;;10.73;48.67
61805;BME280;47725;47.912;7.356;2023-12-20T16:18:37;99760.91;;;10.65;48.71
61805;BME280;47725;47.912;7.356;2023-12-20T16:22:37;99759.55;;;10.61;48.58
61805;BME280;47725;47.912;7.356;2023-12-20T16:26:37;99758.37;;;10.55;48.91
61805;BME280;47725;47.912;7.356;2023-12-20T16:30:37;99757.65;;;10.49;49.43
61805;BME280;47725;47.912;7.356;2023-12-20T16:34:37;99751.84;;;10.44;49.50
61805;BME280;47725;47.912;7.356;2023-12-20T16:38:37;99747.00;;;10.39;49.81
61805;BME280;47725;47.912;7.356;2023-12-20T16:42:37;99744.56;;;10.34;49.95
61805;BME280;47725;47.912;7.356;2023-12-20T16:46:37;99743.25;;;10.31;49.75
61805;BME280;47725;47.912;7.356;2023-12-20T16:50:37;99743.49;;;10.29;49.55
61805;BME280;47725;47.912;7.356;2023-12-20T16:54:37;99744.53;;;10.27;50.04
61805;BME280;47725;47.912;7.356;2023-12-20T16:58:37;99742.97;;;10.25;49.84
61805;BME280;47725;47.912;7.356;2023-12-20T17:02:36;99741.36;;;10.23;50.12
61805;BME280;47725;47.912;7.356;2023-12-20T17:06:37;99740.06;;;10.21;50.21
61805;BME280;47725;47.912;7.356;2023-12-20T17:10:36;99738.42;;;10.19;50.19
61805;BME280;47725;47.912;7.356;2023-12-20T17:14:36;99738.04;;;10.18;50.31
61805;BME280;47725;47.912;7.356;2023-12-20T17:18:37;99737.35;;;10.17;50.38
61805;BME280;47725;47.912;7.356;2023-12-20T17:22:36;99737.90;;;10.17;50.31
61805;BME280;47725;47.912;7.356;2023-12-20T17:26:36;99739.53;;;10.17;50.49
61805;BME280;47725;47.912;7.356;2023-12-20T17:30:36;99740.91;;;10.18;50.47
61805;BME280;47725;47.912;7.356;2023-12-20T17:34:36;99741.99;;;10.19;50.58
61805;BME280;47725;47.912;7.356;2023-12-20T17:38:36;99740.80;;;10.20;50.60
61805;BME280;47725;47.912;7.356;2023-12-20T17:42:36;99740.23;;;10.21;50.18
61805;BME280;47725;47.912;7.356;2023-12-20T17:46:36;99742.22;;;10.22;50.29
61805;BME280;47725;47.912;7.356;2023-12-20T17:50:36;99746.12;;;10.25;50.38
61805;BME280;47725;47.912;7.356;2023-12-20T17:54:36;99748.96;;;10.26;50.69
61805;BME280;47725;47.912;7.356;2023-12-20T17:58:36;99751.90;;;10.26;50.76
61805;BME280;47725;47.912;7.356;2023-12-20T18:02:36;99755.11;;;10.26;50.97
61805;BME280;47725;47.912;7.356;2023-12-20T18:06:36;99756.87;;;10.27;50.90
61805;BME280;47725;47.912;7.356;2023-12-20T18:10:36;99760.99;;;10.28;50.80
61805;BME280;47725;47.912;7.356;2023-12-20T18:14:36;99764.67;;;10.27;51.17
61805;BME280;47725;47.912;7.356;2023-12-20T18:18:36;99768.36;;;10.26;51.61
61805;BME280;47725;47.912;7.356;2023-12-20T18:22:36;99771.42;;;10.27;51.42
61805;BME280;47725;47.912;7.356;2023-12-20T18:26:36;99775.44;;;10.28;51.55
61805;BME280;47725;47.912;7.356;2023-12-20T18:30:36;99776.88;;;10.29;51.45
61805;BME280;47725;47.912;7.356;2023-12-20T18:34:36;99777.09;;;10.30;51.86
61805;BME280;47725;47.912;7.356;2023-12-20T18:38:36;99776.71;;;10.31;51.84
61805;BME280;47725;47.912;7.356;2023-12-20T18:42:36;99777.51;;;10.33;51.80
61805;BME280;47725;47.912;7.356;2023-12-20T18:46:36;99776.34;;;10.33;52.16
61805;BME280;47725;47.912;7.356;2023-12-20T18:50:36;99772.94;;;10.34;52.06
61805;BME280;47725;47.912;7.356;2023-12-20T18:54:36;99768.50;;;10.34;52.34
61805;BME280;47725;47.912;7.356;2023-12-20T18:58:36;99764.20;;;10.33;52.56
61805;BME280;47725;47.912;7.356;2023-12-20T19:02:36;99760.52;;;10.35;52.39
61805;BME280;47725;47.912;7.356;2023-12-20T19:06:36;99756.45;;;10.36;52.33
61805;BME280;47725;47.912;7.356;2023-12-20T19:10:36;99754.82;;;10.36;52.53
61805;BME280;47725;47.912;7.356;2023-12-20T19:14:36;99752.94;;;10.36;52.56
61805;BME280;47725;47.912;7.356;2023-12-20T19:18:36;99749.91;;;10.36;52.61
61805;BME280;47725;47.912;7.356;2023-12-20T19:22:36;99745.97;;;10.35;52.58
61805;BME280;47725;47.912;7.356;2023-12-20T19:26:36;99740.28;;;10.35;52.47
61805;BME280;47725;47.912;7.356;2023-12-20T19:30:36;99733.73;;;10.34;52.61
61805;BME280;47725;47.912;7.356;2023-12-20T19:34:36;99729.41;;;10.33;52.60
61805;BME280;47725;47.912;7.356;2023-12-20T19:38:36;99725.05;;;10.33;52.58
61805;BME280;47725;47.912;7.356;2023-12-20T19:42:36;99719.98;;;10.31;52.71
61805;BME280;47725;47.912;7.356;2023-12-20T19:46:36;99715.99;;;10.28;52.88
61805;BME280;47725;47.912;7.356;2023-12-20T19:50:36;99713.51;;;10.27;52.76
61805;BME280;47725;47.912;7.356;2023-12-20T19:54:36;99712.16;;;10.28;52.54
61805;BME280;47725;47.912;7.356;2023-12-20T19:58:36;99710.26;;;10.29;52.48
61805;BME280;47725;47.912;7.356;2023-12-20T20:02:36;99709.20;;;10.31;52.38
61805;BME280;47725;47.912;7.356;2023-12-20T20:06:36;99708.65;;;10.33;52.45
61805;BME280;47725;47.912;7.356;2023-12-20T20:10:36;99706.35;;;10.34;52.56
61805;BME280;47725;47.912;7.356;2023-12-20T20:14:36;99700.80;;;10.36;52.54
61805;BME280;47725;47.912;7.356;2023-12-20T20:18:36;99694.95;;;10.37;52.63
61805;BME280;47725;47.912;7.356;2023-12-20T20:22:36;99686.97;;;10.37;52.75
61805;BME280;47725;47.912;7.356;2023-12-20T20:26:36;99678.47;;;10.38;52.73
61805;BME280;47725;47.912;7.356;2023-12-20T20:30:36;99668.91;;;10.35;53.42
61805;BME280;47725;47.912;7.356;2023-12-20T20:34:36;99661.74;;;10.29;53.63
61805;BME280;47725;47.912;7.356;2023-12-20T20:38:36;99656.56;;;10.26;53.76
61805;BME280;47725;47.912;7.356;2023-12-20T20:42:36;99653.30;;;10.22;54.03
61805;BME280;47725;47.912;7.356;2023-12-20T20:46:36;99651.81;;;10.20;53.97
61805;BME280;47725;47.912;7.356;2023-12-20T20:50:36;99648.46;;;10.19;53.89
61805;BME280;47725;47.912;7.356;2023-12-20T20:54:36;99648.85;;;10.16;54.17
61805;BME280;47725;47.912;7.356;2023-12-20T20:58:36;99652.12;;;10.14;54.29
61805;BME280;47725;47.912;7.356;2023-12-20T21:02:36;99654.52;;;10.13;54.29
61805;BME280;47725;47.912;7.356;2023-12-20T21:06:36;99652.56;;;10.09;54.80
61805;BME280;47725;47.912;7.356;2023-12-20T21:10:36;99646.61;;;10.07;54.79